Terminal Aerodrome Forecast
Issued by NWS

Home | Current Version | Previous Version | Text Only | Print | Product List | Glossary On
Versions: 1 2 3 4 5 6 7 8 9 10 11 12 13 14 15 16 17
000
FTUS43 KOAX 271137
TAFBFF
TAF
KBFF 271137Z 2712/2812 12013KT P6SM SCT025 OVC060
      TEMPO 2712/2716 BKN025
     FM271600 15015G25KT P6SM BKN050
     FM280100 13013KT P6SM BKN025 OVC050=

USA.gov is the U.S. government's official web portal to all federal, state and local government web resources and services.